CDT,Max TemperatureF,Mean TemperatureF,Min TemperatureF,Max Dew PointF,MeanDew PointF,Min DewpointF,Max Humidity, Mean Humidity, Min Humidity, Max Sea Level PressureIn, Mean Sea Level PressureIn, Min Sea Level PressureIn, Max VisibilityMiles, Mean VisibilityMiles, Min VisibilityMiles, Max Wind SpeedMPH, Mean Wind SpeedMPH, Max Gust SpeedMPH,PrecipitationIn, CloudCover, Events, WindDirDegrees
2011-10-1,64,51,38,40,37,34,83,60,36,30.31,30.25,30.16,10,10,10,20,10,26,0.00,0,,8
2011-10-2,70,53,35,46,35,26,86,53,20,30.32,30.25,30.19,10,10,10,13,4,18,0.00,0,,334
2011-10-3,78,60,41,46,41,36,82,54,26,30.26,30.21,30.17,10,10,10,14,4,20,0.00,0,,333
2011-10-4,80,60,40,50,45,38,89,60,30,30.32,30.26,30.21,10,10,10,7,1,18,0.00,0,,56
2011-10-5,82,63,44,52,45,41,93,60,26,30.30,30.24,30.18,10,10,10,12,3,17,0.00,0,,181
2011-10-6,84,64,44,54,49,42,89,60,31,30.27,30.22,30.18,10,10,7,16,6,23,0.00,0,,139
2011-10-7,85,67,49,56,52,48,89,61,32,30.32,30.27,30.22,10,10,10,20,8,25,0.00,0,,165
2011-10-8,83,66,48,57,50,45,93,60,26,30.35,30.29,30.25,10,10,5,20,8,25,0.00,0,,164
2011-10-9,82,63,43,48,43,39,96,60,23,30.36,30.28,30.21,10,10,10,15,5,20,0.00,0,,123
2011-10-10,80,62,43,53,49,41,93,66,39,30.21,30.13,30.06,10,10,6,15,5,18,0.00,0,,157
2011-10-11,80,66,51,57,53,48,93,68,42,30.04,29.97,29.89,10,10,8,9,2,41,0.00,2,,120
2011-10-12,78,64,50,62,57,48,93,70,47,29.88,29.77,29.65,10,8,2,22,6,28,0.32,4,Rain,166
2011-10-13,68,63,57,61,56,43,100,76,51,29.66,29.60,29.55,10,7,3,18,9,25,0.22,7,Rain,269
2011-10-14,66,58,49,44,41,36,71,55,39,29.87,29.76,29.66,10,10,10,28,14,35,0.00,1,,284
2011-10-15,65,56,47,39,37,34,66,49,31,30.03,29.97,29.88,10,10,10,22,12,29,0.00,1,,259
2011-10-16,73,62,51,49,42,35,64,52,40,29.97,29.88,29.81,10,10,10,21,12,28,0.00,0,,269
2011-10-17,58,51,44,43,37,31,92,65,38,30.01,29.97,29.93,10,9,4,13,6,30,0.57,3,Rain,272
2011-10-18,51,48,45,45,41,36,92,74,56,29.91,29.84,29.80,10,9,4,17,7,23,0.05,8,Rain,317
2011-10-19,47,45,43,45,41,40,93,88,83,29.78,29.71,29.63,10,9,5,30,18,40,0.39,8,Rain,336
2011-10-20,48,43,37,38,35,32,82,69,56,29.97,29.77,29.63,10,10,10,25,14,32,0.03,6,Rain,296
2011-10-21,58,47,36,36,32,30,85,61,36,30.14,30.10,29.97,10,10,10,15,7,21,0.00,0,,273
2011-10-22,69,52,34,43,37,30,89,61,33,30.14,30.08,30.01,10,10,8,17,6,21,0.00,0,,212
2011-10-23,71,58,44,49,46,40,86,65,44,30.05,29.99,29.95,10,10,9,18,7,23,T,4,,215
2011-10-24,66,58,50,52,44,36,86,60,34,30.17,30.09,29.93,10,10,9,20,7,26,0.01,1,,254
2011-10-25,77,65,53,50,43,37,71,51,31,30.14,29.94,29.78,10,10,10,33,18,43,T,0,,191
2011-10-26,67,57,47,55,48,43,93,73,52,29.97,29.89,29.76,10,6,1,17,12,22,T,6,Rain,327
2011-10-27,54,45,35,42,37,31,89,70,50,30.18,30.06,29.96,10,10,9,18,8,24,0.01,5,Rain,348
2011-10-28,56,43,29,39,31,25,92,62,32,30.22,30.16,30.11,10,10,6,12,3,15,0.00,2,,223
2011-10-29,57,45,32,34,28,23,76,52,28,30.15,30.12,30.08,10,10,9,21,7,25,0.00,0,,278
2011-10-30,60,46,31,43,33,23,80,58,35,30.14,30.08,30.00,10,10,9,33,12,47,0.05,4,Rain,180
2011-10-31,54,43,31,41,35,28,100,73,46,30.19,30.09,30.02,10,8,1,14,5,18,0.00,1,,246